createdAt,value
2017-12-03T00:00:26.624Z,1.80
2017-12-03T00:02:54.733Z,1.80
2017-12-03T00:05:22.836Z,2.00
2017-12-03T00:07:51.721Z,1.90
2017-12-03T00:10:19.842Z,2.20
2017-12-03T00:12:47.940Z,2.00
2017-12-03T00:15:16.129Z,2.30
2017-12-03T00:17:44.238Z,2.20
2017-12-03T00:20:13.124Z,2.50
2017-12-03T00:22:41.235Z,2.30
2017-12-03T00:25:09.332Z,2.30
2017-12-03T00:27:37.440Z,2.20
2017-12-03T00:30:06.300Z,2.50
2017-12-03T00:32:35.303Z,2.40
2017-12-03T00:35:03.389Z,2.30
2017-12-03T00:37:32.259Z,2.20
2017-12-03T00:40:00.483Z,2.30
2017-12-03T00:42:29.325Z,2.10
2017-12-03T00:44:57.440Z,2.20
2017-12-03T00:47:25.561Z,2.30
2017-12-03T00:49:53.677Z,2.20
2017-12-03T00:52:21.869Z,2.10
2017-12-03T00:54:49.952Z,2.10
2017-12-03T00:57:18.060Z,2.20
2017-12-03T00:59:46.161Z,2.40
2017-12-03T01:02:15.068Z,2.10
2017-12-03T01:04:43.173Z,2.20
2017-12-03T01:07:11.287Z,2.20
2017-12-03T01:09:40.168Z,2.10
2017-12-03T01:12:08.301Z,2.10
2017-12-03T01:14:36.437Z,2.20
2017-12-03T01:17:06.316Z,2.30
2017-12-03T01:19:34.434Z,2.00
2017-12-03T01:22:02.560Z,2.30
2017-12-03T01:24:30.652Z,2.20
2017-12-03T01:26:58.774Z,2.30
2017-12-03T01:29:26.873Z,2.20
2017-12-03T01:31:55.031Z,2.30
2017-12-03T01:34:23.158Z,2.40
2017-12-03T01:36:52.028Z,2.60
2017-12-03T01:39:20.152Z,2.70
2017-12-03T01:41:48.248Z,2.60
2017-12-03T01:44:16.391Z,2.50
2017-12-03T01:46:45.251Z,2.50
2017-12-03T01:49:14.177Z,2.50
2017-12-03T01:51:42.758Z,2.50
2017-12-03T01:54:11.604Z,2.70
2017-12-03T01:56:39.705Z,2.70
2017-12-03T01:59:07.818Z,2.70
2017-12-03T02:01:36.785Z,2.70
2017-12-03T02:04:04.912Z,2.50
2017-12-03T02:06:33.046Z,2.20
2017-12-03T02:09:01.158Z,2.40
2017-12-03T02:11:29.300Z,2.30
2017-12-03T02:13:58.305Z,2.00
2017-12-03T02:16:26.455Z,2.30
2017-12-03T02:18:55.484Z,2.20
2017-12-03T02:21:23.595Z,2.30
2017-12-03T02:23:52.471Z,2.50
2017-12-03T02:26:21.341Z,2.40
2017-12-03T02:28:49.468Z,2.20
2017-12-03T02:31:17.574Z,2.20
2017-12-03T02:33:45.681Z,2.40
2017-12-03T02:36:13.795Z,2.60
2017-12-03T02:38:41.884Z,2.30
2017-12-03T02:41:10.004Z,2.40
2017-12-03T02:43:38.875Z,2.40
2017-12-03T02:46:06.972Z,2.40
2017-12-03T02:48:35.987Z,2.10
2017-12-03T02:51:04.833Z,2.20
2017-12-03T02:53:32.967Z,2.10
2017-12-03T02:56:01.078Z,2.10
2017-12-03T02:58:29.185Z,1.80
2017-12-03T03:00:58.077Z,1.90
2017-12-03T03:03:26.187Z,1.90
2017-12-03T03:05:54.292Z,2.00
2017-12-03T03:08:22.415Z,2.00
2017-12-03T03:10:51.295Z,2.00
2017-12-03T03:13:19.399Z,1.70
2017-12-03T03:15:47.520Z,1.80
2017-12-03T03:18:15.632Z,2.00
2017-12-03T03:20:43.781Z,2.20
2017-12-03T03:23:11.889Z,2.20
2017-12-03T03:25:40.033Z,2.20
2017-12-03T03:28:08.196Z,2.10
2017-12-03T03:30:36.343Z,2.50
2017-12-03T03:33:04.424Z,2.40
2017-12-03T03:35:33.316Z,2.20
2017-12-03T03:38:02.182Z,2.10
2017-12-03T03:40:30.320Z,2.30
2017-12-03T03:42:58.444Z,2.00
2017-12-03T03:45:27.310Z,1.80
2017-12-03T03:47:56.128Z,1.70
2017-12-03T03:50:25.019Z,1.90
2017-12-03T03:52:54.046Z,2.30
2017-12-03T03:55:22.885Z,2.00
2017-12-03T03:57:51.043Z,2.30
2017-12-03T04:00:19.137Z,1.90
2017-12-03T04:02:47.239Z,2.20
2017-12-03T04:05:15.360Z,2.20
2017-12-03T04:07:43.470Z,2.20
2017-12-03T04:10:12.332Z,2.20
2017-12-03T04:12:40.453Z,2.00
2017-12-03T04:15:08.561Z,2.20
2017-12-03T04:17:36.667Z,2.20
2017-12-03T04:20:04.780Z,2.20
2017-12-03T04:22:33.679Z,2.20
2017-12-03T04:25:01.773Z,2.10
2017-12-03T04:27:29.936Z,2.00
2017-12-03T04:29:58.048Z,2.20
2017-12-03T04:32:26.144Z,2.20
2017-12-03T04:34:54.268Z,2.20
2017-12-03T04:37:22.393Z,2.20
2017-12-03T04:39:50.496Z,2.10
2017-12-03T04:42:18.624Z,2.50
2017-12-03T04:44:47.489Z,2.50
2017-12-03T04:47:15.593Z,2.50
2017-12-03T04:49:44.482Z,2.20
2017-12-03T04:52:13.365Z,2.00
2017-12-03T04:54:41.457Z,2.20
2017-12-03T04:57:09.582Z,2.40
2017-12-03T04:59:37.695Z,2.40
2017-12-03T05:02:05.791Z,2.50
2017-12-03T05:04:33.926Z,2.30
2017-12-03T05:07:02.024Z,2.50
2017-12-03T05:09:30.137Z,2.50
2017-12-03T05:11:58.289Z,2.20
2017-12-03T05:14:27.154Z,2.40
2017-12-03T05:16:56.013Z,2.40
2017-12-03T05:19:24.160Z,2.20
2017-12-03T05:21:52.308Z,2.40
2017-12-03T05:24:21.156Z,2.10
2017-12-03T05:26:49.285Z,2.40
2017-12-03T05:29:17.384Z,2.40
2017-12-03T05:31:45.489Z,2.50
2017-12-03T05:34:14.388Z,2.50
2017-12-03T05:36:43.256Z,2.70
2017-12-03T05:39:11.357Z,2.70
2017-12-03T05:41:39.478Z,2.40
2017-12-03T05:44:07.581Z,2.50
2017-12-03T05:46:36.458Z,2.70
2017-12-03T05:49:04.588Z,2.70
2017-12-03T05:51:32.718Z,2.60
2017-12-03T05:54:00.809Z,2.60
2017-12-03T05:56:29.707Z,3.00
2017-12-03T05:58:57.807Z,2.80
2017-12-03T06:01:25.902Z,3.00
2017-12-03T06:03:54.012Z,3.00
2017-12-03T06:06:22.873Z,2.50
2017-12-03T06:08:50.971Z,2.50
2017-12-03T06:11:19.869Z,2.70
2017-12-03T06:13:48.739Z,2.70
2017-12-03T06:16:16.838Z,2.70
2017-12-03T06:18:44.957Z,2.70
2017-12-03T06:21:13.091Z,2.50
2017-12-03T06:23:41.933Z,2.30
2017-12-03T06:26:10.055Z,2.20
2017-12-03T06:28:38.169Z,2.50
2017-12-03T06:31:06.264Z,2.20
2017-12-03T06:33:34.401Z,2.30
2017-12-03T06:36:02.504Z,2.10
2017-12-03T06:38:30.596Z,2.20
2017-12-03T06:40:59.488Z,1.90
2017-12-03T06:43:28.364Z,2.10
2017-12-03T06:45:56.469Z,2.20
2017-12-03T06:48:24.593Z,2.10
2017-12-03T06:50:52.703Z,2.00
2017-12-03T06:53:21.568Z,2.20
2017-12-03T06:55:49.681Z,2.20
2017-12-03T06:58:17.818Z,2.00
2017-12-03T07:00:45.982Z,2.00
2017-12-03T07:03:14.163Z,2.20
2017-12-03T07:05:42.242Z,1.90
2017-12-03T07:08:10.365Z,1.80
2017-12-03T07:10:38.496Z,2.00
2017-12-03T07:13:07.379Z,2.20
2017-12-03T07:15:35.528Z,2.30
2017-12-03T07:18:03.640Z,2.20
2017-12-03T07:20:32.516Z,2.30
2017-12-03T07:23:00.626Z,2.10
2017-12-03T07:25:28.760Z,1.70
2017-12-03T07:27:56.900Z,1.90
2017-12-03T07:30:24.994Z,2.00
2017-12-03T07:32:53.120Z,1.70
2017-12-03T07:35:21.216Z,2.00
2017-12-03T07:37:49.321Z,2.00
2017-12-03T07:40:17.462Z,2.20
2017-12-03T07:42:45.562Z,2.10
2017-12-03T07:45:13.683Z,1.90
2017-12-03T07:47:41.785Z,2.10
2017-12-03T07:50:09.884Z,2.00
2017-12-03T07:52:37.990Z,2.00
2017-12-03T07:55:06.117Z,2.00
2017-12-03T07:57:34.217Z,2.10
2017-12-03T08:00:03.097Z,1.80
2017-12-03T08:02:31.238Z,2.00
2017-12-03T08:04:59.350Z,2.00
2017-12-03T08:07:27.437Z,1.80
2017-12-03T08:09:55.565Z,2.00
2017-12-03T08:12:23.677Z,1.90
2017-12-03T08:14:52.541Z,2.20
2017-12-03T08:17:20.680Z,2.00
2017-12-03T08:19:48.798Z,2.20
2017-12-03T08:22:16.921Z,2.10
2017-12-03T08:24:45.065Z,2.20
2017-12-03T08:27:13.930Z,2.00
2017-12-03T08:29:42.037Z,1.90
2017-12-03T08:32:10.180Z,1.80
2017-12-03T08:34:38.290Z,1.90
2017-12-03T08:37:06.396Z,2.20
2017-12-03T08:39:34.529Z,2.30
2017-12-03T08:42:02.632Z,2.20
2017-12-03T08:44:30.745Z,2.20
2017-12-03T08:46:59.648Z,2.10
2017-12-03T08:49:28.508Z,2.20
2017-12-03T08:51:56.596Z,1.90
2017-12-03T08:54:24.748Z,2.20
2017-12-03T08:56:52.845Z,2.00
2017-12-03T08:59:20.941Z,2.00
2017-12-03T09:01:49.877Z,1.80
2017-12-03T09:04:17.952Z,1.80
2017-12-03T09:06:46.060Z,1.80
2017-12-03T09:09:14.944Z,2.10
2017-12-03T09:11:43.050Z,2.20
2017-12-03T09:14:11.170Z,2.00
2017-12-03T09:16:39.280Z,2.10
2017-12-03T09:19:08.150Z,2.20
2017-12-03T09:21:36.264Z,2.20
2017-12-03T09:24:04.392Z,2.30
2017-12-03T09:26:32.480Z,2.20
2017-12-03T09:29:01.373Z,2.20
2017-12-03T09:31:30.268Z,2.20
2017-12-03T09:34:00.081Z,2.30
2017-12-03T09:36:28.953Z,2.30
2017-12-03T09:38:57.089Z,2.30
2017-12-03T09:41:25.213Z,2.50
2017-12-03T09:43:54.109Z,2.50
2017-12-03T09:46:22.988Z,2.40
2017-12-03T09:48:51.886Z,2.40
2017-12-03T09:51:20.757Z,2.50
2017-12-03T09:53:48.889Z,2.50
2017-12-03T09:56:17.013Z,2.20
2017-12-03T09:58:45.227Z,2.00
2017-12-03T10:01:14.104Z,2.00
2017-12-03T10:03:42.209Z,2.50
2017-12-03T10:06:10.321Z,2.00
2017-12-03T10:08:38.447Z,2.00
2017-12-03T10:11:06.549Z,2.20
2017-12-03T10:13:34.685Z,2.40
2017-12-03T10:16:02.801Z,2.40
2017-12-03T10:18:30.916Z,2.20
2017-12-03T10:20:59.024Z,2.20
2017-12-03T10:23:27.152Z,2.20
2017-12-03T10:25:56.014Z,2.20
2017-12-03T10:28:24.113Z,2.40
2017-12-03T10:30:52.997Z,2.50
2017-12-03T10:33:21.864Z,2.40
2017-12-03T10:35:49.984Z,2.40
2017-12-03T10:38:20.074Z,2.50
2017-12-03T10:40:48.942Z,2.00
2017-12-03T10:43:17.397Z,2.20
2017-12-03T10:45:45.509Z,2.40
2017-12-03T10:48:13.605Z,2.40
2017-12-03T10:50:42.471Z,2.60
2017-12-03T10:53:10.594Z,2.50
2017-12-03T10:55:39.461Z,2.70
2017-12-03T10:58:07.564Z,2.60
2017-12-03T11:00:35.699Z,2.40
2017-12-03T11:03:04.581Z,2.40
2017-12-03T11:05:33.449Z,2.50
2017-12-03T11:08:01.594Z,2.50
2017-12-03T11:10:29.701Z,2.50
2017-12-03T11:12:57.810Z,2.40
2017-12-03T11:15:25.933Z,2.50
2017-12-03T11:17:54.036Z,2.10
2017-12-03T11:20:22.902Z,2.30
2017-12-03T11:22:51.048Z,2.10
2017-12-03T11:25:19.150Z,2.20
2017-12-03T11:27:47.245Z,2.20
2017-12-03T11:30:16.151Z,2.10
2017-12-03T11:32:45.066Z,2.40
2017-12-03T11:35:13.160Z,2.10
2017-12-03T11:37:41.288Z,2.40
2017-12-03T11:40:10.157Z,2.60
2017-12-03T11:42:38.256Z,2.50
2017-12-03T11:45:06.396Z,2.50
2017-12-03T11:47:34.496Z,2.30
2017-12-03T11:50:03.521Z,2.20
2017-12-03T11:52:31.653Z,2.20
2017-12-03T11:55:00.553Z,2.30
2017-12-03T11:57:29.449Z,2.40
2017-12-03T11:59:57.565Z,2.10
2017-12-03T12:02:25.665Z,2.30
2017-12-03T12:04:53.800Z,2.30
2017-12-03T12:07:21.906Z,2.30
2017-12-03T12:09:50.050Z,2.50
2017-12-03T12:12:18.165Z,2.50
2017-12-03T12:14:46.293Z,2.40
2017-12-03T12:17:14.400Z,2.80
2017-12-03T12:19:42.504Z,2.70
2017-12-03T12:22:11.378Z,2.80
2017-12-03T12:24:40.592Z,3.00
2017-12-03T12:27:09.493Z,2.90
2017-12-03T12:29:37.585Z,3.10
2017-12-03T12:32:05.714Z,2.80
2017-12-03T12:34:33.821Z,2.60
2017-12-03T12:37:01.961Z,2.90
2017-12-03T12:39:30.848Z,3.00
2017-12-03T12:41:58.953Z,3.00
2017-12-03T12:44:27.075Z,3.00
2017-12-03T12:46:55.185Z,3.00
2017-12-03T12:49:24.070Z,3.20
2017-12-03T12:51:52.951Z,2.90
2017-12-03T12:54:22.132Z,2.90
2017-12-03T12:56:50.265Z,2.80
2017-12-03T12:59:18.401Z,2.90
2017-12-03T13:01:47.266Z,2.70
2017-12-03T13:04:15.369Z,2.80
2017-12-03T13:06:44.244Z,2.70
2017-12-03T13:09:12.359Z,2.70
2017-12-03T13:11:40.534Z,2.70
2017-12-03T13:14:08.646Z,2.80
2017-12-03T13:16:36.758Z,2.90
2017-12-03T13:19:05.629Z,3.00
2017-12-03T13:21:34.503Z,2.90
2017-12-03T13:24:02.617Z,3.00
2017-12-03T13:26:30.737Z,3.00
2017-12-03T13:28:58.830Z,2.80
2017-12-03T13:31:26.957Z,2.90
2017-12-03T13:33:55.831Z,2.90
2017-12-03T13:36:23.925Z,3.00
2017-12-03T13:38:52.207Z,2.80
2017-12-03T13:41:20.352Z,2.80
2017-12-03T13:43:48.399Z,2.50
2017-12-03T13:46:17.292Z,3.00
2017-12-03T13:48:46.159Z,3.20
2017-12-03T13:51:14.268Z,3.20
2017-12-03T13:53:43.153Z,3.50
2017-12-03T13:56:12.020Z,3.20
2017-12-03T13:58:40.185Z,3.30
2017-12-03T14:01:08.303Z,3.20
2017-12-03T14:03:36.417Z,3.50
2017-12-03T14:06:04.576Z,3.40
2017-12-03T14:08:32.735Z,3.10
2017-12-03T14:11:00.833Z,3.00
2017-12-03T14:13:28.942Z,2.90
2017-12-03T14:15:57.058Z,3.20
2017-12-03T14:18:25.157Z,3.00
2017-12-03T14:20:53.263Z,3.00
2017-12-03T14:23:22.148Z,3.20
2017-12-03T14:25:50.247Z,3.20
2017-12-03T14:28:18.357Z,3.40
2017-12-03T14:30:46.482Z,3.40
2017-12-03T14:33:15.346Z,3.50
2017-12-03T14:35:43.465Z,3.50
2017-12-03T14:38:11.585Z,3.70
2017-12-03T14:40:39.680Z,3.70
2017-12-03T14:43:08.550Z,3.60
2017-12-03T14:45:36.681Z,3.60
2017-12-03T14:48:04.781Z,3.60
2017-12-03T14:50:32.888Z,3.70
2017-12-03T14:53:01.777Z,3.90
2017-12-03T14:55:29.872Z,3.70
2017-12-03T14:57:58.017Z,3.80
2017-12-03T15:00:26.137Z,3.70
2017-12-03T15:02:54.240Z,3.90
2017-12-03T15:05:22.341Z,3.90
2017-12-03T15:07:50.478Z,4.00
2017-12-03T15:10:18.589Z,4.20
2017-12-03T15:12:47.455Z,4.00
2017-12-03T15:15:15.573Z,4.10
2017-12-03T15:17:43.764Z,4.00
2017-12-03T15:20:12.609Z,4.10
2017-12-03T15:22:40.757Z,4.10
2017-12-03T15:25:08.861Z,4.10
2017-12-03T15:27:37.741Z,4.00
2017-12-03T15:30:05.874Z,4.00
2017-12-03T15:32:33.992Z,4.20
2017-12-03T15:35:02.096Z,3.80
2017-12-03T15:37:30.241Z,4.00
2017-12-03T15:39:58.394Z,3.90
2017-12-03T15:42:26.510Z,3.70
2017-12-03T15:44:55.426Z,4.00
2017-12-03T15:47:23.545Z,3.80
2017-12-03T15:49:51.648Z,4.20
2017-12-03T15:52:20.578Z,4.20
2017-12-03T15:54:48.727Z,3.90
2017-12-03T15:57:16.825Z,4.10
2017-12-03T15:59:44.978Z,4.00
2017-12-03T16:02:13.071Z,4.00
2017-12-03T16:04:41.166Z,4.20
2017-12-03T16:07:09.310Z,4.00
2017-12-03T16:09:37.409Z,4.10
2017-12-03T16:12:05.504Z,4.00
2017-12-03T16:14:34.427Z,4.40
2017-12-03T16:17:02.529Z,4.40
2017-12-03T16:19:30.679Z,4.20
2017-12-03T16:21:59.561Z,4.10
2017-12-03T16:24:27.664Z,4.20
2017-12-03T16:26:55.769Z,4.30
2017-12-03T16:29:23.899Z,4.30
2017-12-03T16:31:52.001Z,4.30
2017-12-03T16:34:20.127Z,4.40
2017-12-03T16:36:48.265Z,4.30
2017-12-03T16:39:16.365Z,4.40
2017-12-03T16:41:44.473Z,4.30
2017-12-03T16:44:13.373Z,4.40
2017-12-03T16:46:41.515Z,4.00
2017-12-03T16:49:09.676Z,3.90
2017-12-03T16:51:38.578Z,4.20
2017-12-03T16:54:06.685Z,4.30
2017-12-03T16:56:34.841Z,4.30
2017-12-03T16:59:02.986Z,4.10
2017-12-03T17:01:31.857Z,4.10
2017-12-03T17:04:00.749Z,4.30
2017-12-03T17:06:29.652Z,4.40
2017-12-03T17:08:58.544Z,4.40
2017-12-03T17:11:27.412Z,4.30
2017-12-03T17:13:55.546Z,4.20
2017-12-03T17:16:23.646Z,4.50
2017-12-03T17:18:52.667Z,4.20
2017-12-03T17:21:20.798Z,4.40
2017-12-03T17:23:48.884Z,4.30
2017-12-03T17:26:16.997Z,4.40
2017-12-03T17:28:45.125Z,4.20
2017-12-03T17:31:13.229Z,4.30
2017-12-03T17:33:42.110Z,4.30
2017-12-03T17:36:11.006Z,4.10
2017-12-03T17:38:39.892Z,4.50
2017-12-03T17:41:07.980Z,4.20
2017-12-03T17:43:37.001Z,4.10
2017-12-03T17:46:05.104Z,4.30
2017-12-03T17:48:33.253Z,4.40
2017-12-03T17:51:01.381Z,4.40
2017-12-03T17:53:29.977Z,4.30
2017-12-03T17:55:58.853Z,4.40
2017-12-03T17:58:26.993Z,4.30
2017-12-03T18:00:55.097Z,4.50
2017-12-03T18:03:23.402Z,4.20
2017-12-03T18:05:51.569Z,4.30
2017-12-03T18:08:20.457Z,4.40
2017-12-03T18:10:49.441Z,4.20
2017-12-03T18:13:17.557Z,4.30
2017-12-03T18:15:45.658Z,4.40
2017-12-03T18:18:13.896Z,4.50
2017-12-03T18:20:42.025Z,4.30
2017-12-03T18:23:10.130Z,4.20
2017-12-03T18:25:38.229Z,4.30
2017-12-03T18:28:06.364Z,4.30
2017-12-03T18:30:35.255Z,4.30
2017-12-03T18:33:04.137Z,4.30
2017-12-03T18:35:33.062Z,4.20
2017-12-03T18:38:01.177Z,4.30
2017-12-03T18:40:29.277Z,4.40
2017-12-03T18:42:58.176Z,4.60
2017-12-03T18:45:27.040Z,4.60
2017-12-03T18:47:55.154Z,4.60
2017-12-03T18:50:23.301Z,4.60
2017-12-03T18:52:52.202Z,4.60
2017-12-03T18:55:21.096Z,4.50
2017-12-03T18:57:49.992Z,4.60
2017-12-03T19:00:18.900Z,4.60
2017-12-03T19:02:47.017Z,5.00
2017-12-03T19:05:15.143Z,4.80
2017-12-03T19:07:43.246Z,4.90
2017-12-03T19:10:11.361Z,4.40
2017-12-03T19:12:40.268Z,4.50
2017-12-03T19:15:08.365Z,4.70
2017-12-03T19:17:36.468Z,4.60
2017-12-03T19:20:04.617Z,4.70
2017-12-03T19:22:32.760Z,4.50
2017-12-03T19:25:01.609Z,4.60
2017-12-03T19:27:29.801Z,4.60
2017-12-03T19:29:58.681Z,4.80
2017-12-03T19:32:26.790Z,4.90
2017-12-03T19:34:54.960Z,4.90
2017-12-03T19:37:23.821Z,4.60
2017-12-03T19:39:51.977Z,4.80
2017-12-03T19:42:20.170Z,4.70
2017-12-03T19:44:48.336Z,4.60
2017-12-03T19:47:17.382Z,4.60
2017-12-03T19:49:45.516Z,4.50
2017-12-03T19:52:14.397Z,4.50
2017-12-03T19:54:42.582Z,4.40
2017-12-03T19:57:11.669Z,4.80
2017-12-03T19:59:39.768Z,4.90
2017-12-03T20:02:08.679Z,4.50
2017-12-03T20:04:36.832Z,4.60
2017-12-03T20:07:05.800Z,4.90
2017-12-03T20:09:33.950Z,5.10
2017-12-03T20:12:02.084Z,4.90
2017-12-03T20:14:30.259Z,4.90
2017-12-03T20:16:58.353Z,4.80
2017-12-03T20:19:27.179Z,4.90
2017-12-03T20:21:55.272Z,4.90
2017-12-03T20:24:24.153Z,4.80
2017-12-03T20:26:52.286Z,4.90
2017-12-03T20:29:20.398Z,5.10
2017-12-03T20:31:48.501Z,4.90
2017-12-03T20:34:16.685Z,4.90
2017-12-03T20:36:44.792Z,4.90
2017-12-03T20:39:12.896Z,4.70
2017-12-03T20:41:41.840Z,5.10
2017-12-03T20:44:09.977Z,4.80
2017-12-03T20:46:38.842Z,4.80
2017-12-03T20:49:07.020Z,5.00
2017-12-03T20:51:35.134Z,4.60
2017-12-03T20:54:03.245Z,4.90
2017-12-03T20:56:31.378Z,5.00
2017-12-03T20:58:59.482Z,4.90
2017-12-03T21:01:27.584Z,4.80
2017-12-03T21:03:55.728Z,4.80
2017-12-03T21:06:23.825Z,4.90
2017-12-03T21:08:51.941Z,4.90
2017-12-03T21:11:20.118Z,4.90
2017-12-03T21:13:48.220Z,4.70
2017-12-03T21:16:16.342Z,4.80
2017-12-03T21:18:45.230Z,4.90
2017-12-03T21:21:14.104Z,4.90
2017-12-03T21:23:42.200Z,4.80
2017-12-03T21:26:10.328Z,4.70
2017-12-03T21:28:38.416Z,4.90
2017-12-03T21:31:06.638Z,4.90
2017-12-03T21:33:34.772Z,4.90
2017-12-03T21:36:02.867Z,5.10
2017-12-03T21:38:30.974Z,4.90
2017-12-03T21:40:59.098Z,4.90
2017-12-03T21:43:27.970Z,4.70
2017-12-03T21:45:56.077Z,4.80
2017-12-03T21:48:24.201Z,4.90
2017-12-03T21:50:52.297Z,4.90
2017-12-03T21:53:20.406Z,4.90
2017-12-03T21:55:48.540Z,4.80
2017-12-03T21:58:16.634Z,5.30
2017-12-03T22:00:45.519Z,5.00
2017-12-03T22:03:14.414Z,4.80
2017-12-03T22:05:43.278Z,5.00
2017-12-03T22:08:11.385Z,4.90
2017-12-03T22:10:39.601Z,5.00
2017-12-03T22:13:07.729Z,5.00
2017-12-03T22:15:36.606Z,4.80
2017-12-03T22:18:04.825Z,4.90
2017-12-03T22:20:32.961Z,5.30
2017-12-03T22:23:01.889Z,5.20
2017-12-03T22:25:30.037Z,5.40
2017-12-03T22:27:58.181Z,5.40
2017-12-03T22:30:26.274Z,5.40
2017-12-03T22:32:55.292Z,5.30
2017-12-03T22:35:24.141Z,5.30
2017-12-03T22:37:52.244Z,5.10
2017-12-03T22:40:20.361Z,5.20
2017-12-03T22:42:48.510Z,5.00
2017-12-03T22:45:16.613Z,5.40
2017-12-03T22:47:44.724Z,5.20
2017-12-03T22:50:13.623Z,5.10
2017-12-03T22:52:42.501Z,5.00
2017-12-03T22:55:11.404Z,5.20
2017-12-03T22:57:40.264Z,5.30
2017-12-03T23:00:08.370Z,5.40
2017-12-03T23:02:36.501Z,5.10
2017-12-03T23:05:04.616Z,5.00
2017-12-03T23:07:33.477Z,5.10
2017-12-03T23:10:01.605Z,5.00
2017-12-03T23:12:29.769Z,5.10
2017-12-03T23:14:57.849Z,5.10
2017-12-03T23:17:26.118Z,5.30
2017-12-03T23:19:54.400Z,5.00
2017-12-03T23:22:22.713Z,5.20
2017-12-03T23:24:50.866Z,5.20
2017-12-03T23:27:18.945Z,5.10
2017-12-03T23:29:47.060Z,5.10
2017-12-03T23:32:15.954Z,5.30
2017-12-03T23:34:44.821Z,5.40
2017-12-03T23:37:12.955Z,5.20
2017-12-03T23:39:41.078Z,5.20
2017-12-03T23:42:09.196Z,5.20
2017-12-03T23:44:37.300Z,5.20
2017-12-03T23:47:05.423Z,5.20
2017-12-03T23:49:33.533Z,5.20
2017-12-03T23:52:01.642Z,5.50
2017-12-03T23:54:29.771Z,5.20
2017-12-03T23:56:57.887Z,5.20
2017-12-03T23:59:26.758Z,5.10
